createdAt,value
2022-12-31T00:00:02.232Z,995.6992623129638
2022-12-31T00:15:01.881Z,995.8129588372193
2022-12-31T00:30:04.769Z,995.6996017538454
2022-12-31T00:45:01.689Z,995.7305039912593
2022-12-31T01:00:02.329Z,995.5523828049976
2022-12-31T01:15:01.935Z,995.6150624656481
2022-12-31T01:30:01.619Z,995.6227107017509
2022-12-31T01:45:02.245Z,995.6468491819224
2022-12-31T02:00:01.931Z,995.6119097103265
2022-12-31T02:15:01.594Z,995.4890496504981
2022-12-31T02:30:02.307Z,995.4123717990423
2022-12-31T02:45:01.901Z,995.213954967165
2022-12-31T03:00:02.493Z,995.0512350644641
2022-12-31T03:15:02.137Z,995.6452478311971
2022-12-31T03:30:01.830Z,995.6600694149394
2022-12-31T03:45:02.421Z,996.1525130122676
2022-12-31T04:00:02.083Z,995.4790191761119
2022-12-31T04:15:01.738Z,995.4275370336915
2022-12-31T04:30:02.369Z,995.6801594017968
2022-12-31T04:45:02.041Z,995.5818097760874
2022-12-31T05:00:01.804Z,995.8464698968248
2022-12-31T05:15:02.408Z,995.9046328298864
2022-12-31T05:30:02.509Z,995.824755825212
2022-12-31T05:45:02.090Z,995.7974283335608
2022-12-31T06:00:01.676Z,995.9800138722078
2022-12-31T06:15:02.304Z,996.0281778826201
2022-12-31T06:30:01.956Z,996.1551312115744
2022-12-31T06:45:01.617Z,996.1618650718082
2022-12-31T07:00:02.318Z,996.4103541140233
2022-12-31T07:15:01.998Z,996.2345281994089
2022-12-31T07:30:01.712Z,996.418385065463
2022-12-31T07:45:02.292Z,996.3568475773537
2022-12-31T08:00:01.891Z,996.4845151120592
2022-12-31T08:15:02.524Z,996.525294673348
2022-12-31T08:30:02.206Z,996.3866102711061
2022-12-31T08:45:01.882Z,996.3797959274827
2022-12-31T09:00:02.478Z,996.4529067017147
2022-12-31T09:15:02.122Z,996.3986261931641
2022-12-31T09:30:01.813Z,996.5487511272328
2022-12-31T09:45:02.490Z,996.486512815347
2022-12-31T10:00:02.131Z,997.6366999940676
2022-12-31T10:15:01.775Z,997.8068276956843
2022-12-31T10:30:02.412Z,998.4618217868389
2022-12-31T10:45:02.034Z,998.3503183070264
2022-12-31T11:00:01.672Z,998.2482418271434
2022-12-31T11:15:02.296Z,998.2594744227441
2022-12-31T11:30:01.929Z,998.0264482102665
2022-12-31T11:45:01.547Z,998.0086198176768
2022-12-31T12:00:02.160Z,997.8795383371342
2022-12-31T12:15:01.761Z,997.8375084216931
2022-12-31T12:30:02.406Z,997.7345688902751
2022-12-31T12:45:02.089Z,997.8203319096115
2022-12-31T13:00:01.744Z,997.6197608619809
2022-12-31T13:15:02.404Z,997.6031408880741
2022-12-31T13:30:02.032Z,997.9404891673028
2022-12-31T13:45:01.617Z,998.0186228826095
2022-12-31T14:00:02.273Z,997.8896967342959
2022-12-31T14:15:01.873Z,997.9676960578827
2022-12-31T14:30:02.544Z,998.5034387406272
2022-12-31T14:45:02.164Z,998.582664046897
2022-12-31T15:00:01.837Z,998.7557488698096
2022-12-31T15:15:02.482Z,998.8379768735163
2022-12-31T15:30:02.149Z,998.7446426788262
2022-12-31T15:45:01.826Z,999.134995888661
2022-12-31T16:00:02.461Z,999.0391811456249
2022-12-31T16:15:02.127Z,999.2691250114083
2022-12-31T16:30:01.834Z,999.2336017721206
2022-12-31T16:45:02.493Z,999.2629707505664
2022-12-31T17:00:02.167Z,999.1093741775019
2022-12-31T17:15:01.823Z,998.9498651629983
2022-12-31T17:30:02.546Z,998.7650113617374
2022-12-31T17:45:02.197Z,998.5814227935468
2022-12-31T18:00:01.847Z,998.4876838566178
2022-12-31T18:15:02.489Z,998.4994505999518
2022-12-31T18:30:05.124Z,998.465082222399
2022-12-31T18:45:02.037Z,998.6737875938172
2022-12-31T19:00:01.619Z,998.8879805689213
2022-12-31T19:15:02.209Z,998.7134530129384
2022-12-31T19:30:01.871Z,998.6823321790605
2022-12-31T19:45:02.462Z,998.7834336589909
2022-12-31T20:00:02.038Z,998.8022408143111
2022-12-31T20:15:01.627Z,999.2122209949385
2022-12-31T20:30:02.306Z,999.2620662617162
2022-12-31T20:45:01.887Z,999.2570864176008
2022-12-31T21:00:02.546Z,999.4698535648761
2022-12-31T21:15:02.208Z,999.4623877896157
2022-12-31T21:30:18.222Z,999.5669482025935
2022-12-31T21:45:01.874Z,999.4580972924924
2022-12-31T22:00:39.765Z,999.7896084202625
2022-12-31T22:15:15.871Z,999.6498209516619
2022-12-31T22:30:01.731Z,999.63528353482
2022-12-31T22:45:02.360Z,1000.0960469670981
2022-12-31T23:00:02.228Z,1000.1210796120693
2022-12-31T23:15:01.828Z,1000.0753813499776
2022-12-31T23:30:02.460Z,1000.2081004510056
2022-12-31T23:45:02.069Z,1000.1743493269768
